Terminal Aerodrome Forecast
Issued by NWS

Home | Current Version | Previous Version | Text Only | Print | Product List | Glossary On
Versions: 1 2 3 4 5 6 7 8 9 10 11 12 13 14 15 16 17 18 19 20 21 22 23 24 25 26 27 28 29
000
FTUS41 KBUF 292300
TAFIAG
TAF
KIAG 292337Z 3000/3024 23009KT P6SM SCT045 BKN060
     FM300300 21007KT P6SM VCSH OVC045
     FM301400 25009KT 6SM -SHRA BKN035 OVC080
     FM301700 28008KT P6SM VCSH BKN035 OVC090
     FM302000 25007KT P6SM BKN035 OVC070=

USA.gov is the U.S. government's official web portal to all federal, state and local government web resources and services.